createdAt,value
2017-09-22T00:00:43.422Z,9.23
2017-09-22T00:03:10.915Z,9.70
2017-09-22T00:05:38.381Z,10.23
2017-09-22T00:08:05.852Z,9.30
2017-09-22T00:10:33.321Z,9.97
2017-09-22T00:13:00.834Z,9.13
2017-09-22T00:15:28.299Z,9.60
2017-09-22T00:17:55.897Z,9.37
2017-09-22T00:20:23.457Z,9.40
2017-09-22T00:22:50.928Z,9.57
2017-09-22T00:25:19.234Z,9.80
2017-09-22T00:27:46.727Z,11.07
2017-09-22T00:30:14.208Z,10.40
2017-09-22T00:32:41.670Z,9.13
2017-09-22T00:35:09.146Z,8.93
2017-09-22T00:37:37.377Z,11.10
2017-09-22T00:40:04.858Z,11.10
2017-09-22T00:42:32.344Z,9.83
2017-09-22T00:45:00.649Z,10.70
2017-09-22T00:47:29.684Z,11.43
2017-09-22T00:49:57.973Z,9.87
2017-09-22T00:52:25.431Z,10.23
2017-09-22T00:54:52.885Z,11.40
2017-09-22T00:57:20.374Z,11.17
2017-09-22T00:59:48.694Z,10.50
2017-09-22T01:02:16.166Z,10.37
2017-09-22T01:04:43.718Z,10.63
2017-09-22T01:07:11.944Z,11.70
2017-09-22T01:09:39.437Z,10.83
2017-09-22T01:12:07.626Z,11.10
2017-09-22T01:14:35.099Z,10.93
2017-09-22T01:17:02.576Z,11.80
2017-09-22T01:19:30.034Z,12.67
2017-09-22T01:21:57.538Z,11.83
2017-09-22T01:24:24.992Z,11.63
2017-09-22T01:26:53.342Z,11.30
2017-09-22T01:29:21.709Z,13.10
2017-09-22T01:31:49.937Z,11.90
2017-09-22T01:34:17.451Z,11.00
2017-09-22T01:36:45.675Z,11.77
2017-09-22T01:39:13.161Z,12.97
2017-09-22T01:41:40.682Z,13.17
2017-09-22T01:44:08.174Z,12.47
2017-09-22T01:46:36.409Z,12.03
2017-09-22T01:49:03.907Z,12.40
2017-09-22T01:51:31.379Z,13.23
2017-09-22T01:53:58.844Z,12.90
2017-09-22T01:56:26.358Z,13.17
2017-09-22T01:58:53.815Z,12.90
2017-09-22T02:01:21.276Z,12.20
2017-09-22T02:03:48.753Z,13.83
2017-09-22T02:06:16.243Z,13.13
2017-09-22T02:08:44.470Z,13.90
2017-09-22T02:11:11.953Z,13.20
2017-09-22T02:13:39.410Z,14.00
2017-09-22T02:16:06.913Z,16.17
2017-09-22T02:18:34.600Z,14.50
2017-09-22T02:21:02.404Z,15.03
2017-09-22T02:23:30.536Z,16.53
2017-09-22T02:25:58.029Z,15.40
2017-09-22T02:28:25.516Z,14.97
2017-09-22T02:30:53.741Z,15.80
2017-09-22T02:33:21.226Z,14.80
2017-09-22T02:35:48.678Z,16.53
2017-09-22T02:38:16.221Z,16.47
2017-09-22T02:40:43.689Z,16.77
2017-09-22T02:43:11.151Z,17.63
2017-09-22T02:45:38.695Z,17.23
2017-09-22T02:48:06.169Z,17.00
2017-09-22T02:50:33.661Z,17.30
2017-09-22T02:53:01.902Z,16.83
2017-09-22T02:55:29.411Z,16.93
2017-09-22T02:57:56.870Z,17.03
2017-09-22T03:00:24.349Z,16.23
2017-09-22T03:02:51.819Z,18.47
2017-09-22T03:05:19.305Z,17.60
2017-09-22T03:07:47.547Z,17.47
2017-09-22T03:10:15.026Z,17.73
2017-09-22T03:12:42.571Z,16.80
2017-09-22T03:15:10.041Z,16.60
2017-09-22T03:17:37.504Z,17.50
2017-09-22T03:20:05.009Z,16.77
2017-09-22T03:22:32.501Z,16.60
2017-09-22T03:25:00.003Z,16.73
2017-09-22T03:27:27.513Z,15.33
2017-09-22T03:29:55.007Z,16.30
2017-09-22T03:32:23.348Z,15.90
2017-09-22T03:34:50.842Z,15.33
2017-09-22T03:37:18.298Z,15.00
2017-09-22T03:39:45.762Z,17.50
2017-09-22T03:42:13.269Z,16.87
2017-09-22T03:44:40.734Z,16.13
2017-09-22T03:47:08.209Z,14.77
2017-09-22T03:49:35.677Z,16.17
2017-09-22T03:52:03.207Z,15.10
2017-09-22T03:54:30.790Z,15.60
2017-09-22T03:56:58.255Z,15.10
2017-09-22T03:59:25.749Z,15.07
2017-09-22T04:01:53.235Z,15.90
2017-09-22T04:04:20.755Z,15.47
2017-09-22T04:06:48.256Z,16.20
2017-09-22T04:09:15.723Z,14.07
2017-09-22T04:11:43.193Z,16.13
2017-09-22T04:14:10.689Z,16.73
2017-09-22T04:16:38.150Z,15.87
2017-09-22T04:19:05.745Z,14.73
2017-09-22T04:21:33.249Z,14.77
2017-09-22T04:24:00.722Z,14.47
2017-09-22T04:26:28.204Z,16.70
2017-09-22T04:28:55.681Z,15.30
2017-09-22T04:31:23.133Z,16.00
2017-09-22T04:33:50.630Z,16.80
2017-09-22T04:36:18.101Z,17.43
2017-09-22T04:38:45.729Z,16.07
2017-09-22T04:41:13.264Z,16.87
2017-09-22T04:43:41.530Z,15.80
2017-09-22T04:46:08.994Z,14.43
2017-09-22T04:48:37.278Z,16.50
2017-09-22T04:51:05.552Z,17.47
2017-09-22T04:53:33.814Z,15.47
2017-09-22T04:56:03.001Z,15.33
2017-09-22T04:58:30.472Z,16.30
2017-09-22T05:00:57.977Z,16.83
2017-09-22T05:03:25.462Z,16.13
2017-09-22T05:05:52.921Z,17.73
2017-09-22T05:08:21.204Z,17.43
2017-09-22T05:10:48.677Z,17.37
2017-09-22T05:13:16.183Z,18.33
2017-09-22T05:15:43.675Z,17.07
2017-09-22T05:18:11.131Z,19.27
2017-09-22T05:20:38.656Z,18.77
2017-09-22T05:23:06.120Z,18.20
2017-09-22T05:25:33.657Z,20.17
2017-09-22T05:28:01.145Z,18.07
2017-09-22T05:30:28.688Z,17.50
2017-09-22T05:32:56.190Z,16.60
2017-09-22T05:35:23.681Z,17.73
2017-09-22T05:37:51.896Z,17.40
2017-09-22T05:40:19.446Z,17.45
2017-09-22T05:42:47.136Z,17.30
2017-09-22T05:45:14.668Z,17.33
2017-09-22T05:47:42.137Z,17.20
2017-09-22T05:50:09.621Z,18.60
2017-09-22T05:52:37.099Z,19.87
2017-09-22T05:55:04.581Z,19.30
2017-09-22T05:57:32.825Z,19.10
2017-09-22T06:00:00.313Z,17.67
2017-09-22T06:02:28.558Z,19.00
2017-09-22T06:04:56.012Z,18.53
2017-09-22T06:07:23.506Z,18.80
2017-09-22T06:09:51.826Z,17.87
2017-09-22T06:12:19.287Z,17.53
2017-09-22T06:14:46.856Z,18.00
2017-09-22T06:17:14.358Z,17.07
2017-09-22T06:19:42.625Z,18.10
2017-09-22T06:22:10.885Z,19.13
2017-09-22T06:24:38.361Z,17.80
2017-09-22T06:27:06.653Z,17.90
2017-09-22T06:29:35.595Z,17.37
2017-09-22T06:32:03.046Z,18.30
2017-09-22T06:34:30.529Z,20.87
2017-09-22T06:36:58.009Z,16.90
2017-09-22T06:39:25.609Z,19.37
2017-09-22T06:41:53.094Z,18.77
2017-09-22T06:44:20.553Z,17.23
2017-09-22T06:46:48.029Z,17.87
2017-09-22T06:49:15.510Z,19.53
2017-09-22T06:51:42.965Z,18.67
2017-09-22T06:54:10.497Z,18.63
2017-09-22T06:56:37.959Z,18.20
2017-09-22T06:59:05.474Z,18.10
2017-09-22T07:01:32.943Z,18.73
2017-09-22T07:04:00.393Z,19.40
2017-09-22T07:06:27.882Z,19.77
2017-09-22T07:08:55.339Z,19.03
2017-09-22T07:11:22.794Z,20.00
2017-09-22T07:13:50.262Z,18.87
2017-09-22T07:16:17.753Z,19.23
2017-09-22T07:18:45.230Z,20.53
2017-09-22T07:21:12.723Z,20.40
2017-09-22T07:23:40.188Z,21.10
2017-09-22T07:26:07.676Z,21.30
2017-09-22T07:28:35.864Z,21.75
2017-09-22T07:31:03.318Z,22.30
2017-09-22T07:33:30.798Z,20.43
2017-09-22T07:35:58.274Z,21.03
2017-09-22T07:38:25.741Z,21.80
2017-09-22T07:40:53.223Z,19.40
2017-09-22T07:43:20.681Z,21.43
2017-09-22T07:45:48.165Z,20.57
2017-09-22T07:48:16.420Z,22.67
2017-09-22T07:50:43.877Z,23.93
2017-09-22T07:53:11.338Z,24.87
2017-09-22T07:55:38.841Z,24.47
2017-09-22T07:58:06.349Z,23.10
2017-09-22T08:00:33.838Z,24.47
2017-09-22T08:03:01.298Z,25.90
2017-09-22T08:05:28.782Z,26.93
2017-09-22T08:07:56.653Z,26.90
2017-09-22T08:10:24.160Z,24.43
2017-09-22T08:12:51.618Z,24.10
2017-09-22T08:15:19.093Z,24.97
2017-09-22T08:17:47.352Z,25.20
2017-09-22T08:20:15.613Z,27.30
2017-09-22T08:22:43.090Z,26.57
2017-09-22T08:25:10.574Z,26.60
2017-09-22T08:27:38.849Z,29.17
2017-09-22T08:30:06.796Z,29.77
2017-09-22T08:32:34.275Z,26.13
2017-09-22T08:35:01.771Z,24.70
2017-09-22T08:37:29.230Z,24.30
2017-09-22T08:39:56.701Z,23.63
2017-09-22T08:42:24.201Z,23.47
2017-09-22T08:44:52.441Z,22.23
2017-09-22T08:47:19.910Z,23.50
2017-09-22T08:49:47.409Z,22.10
2017-09-22T08:52:14.878Z,23.53
2017-09-22T08:54:42.460Z,23.83
2017-09-22T08:57:09.973Z,23.37
2017-09-22T08:59:38.277Z,24.17
2017-09-22T09:02:05.747Z,25.57
2017-09-22T09:04:33.209Z,26.33
2017-09-22T09:07:00.767Z,24.40
2017-09-22T09:09:28.231Z,24.17
2017-09-22T09:11:55.713Z,24.43
2017-09-22T09:14:23.174Z,23.07
2017-09-22T09:16:50.639Z,22.50
2017-09-22T09:19:18.117Z,26.40
2017-09-22T09:21:46.343Z,23.77
2017-09-22T09:24:13.849Z,25.80
2017-09-22T09:26:41.400Z,27.67
2017-09-22T09:29:08.970Z,26.03
2017-09-22T09:31:38.395Z,28.10
2017-09-22T09:34:05.873Z,26.50
2017-09-22T09:36:33.430Z,26.20
2017-09-22T09:39:00.909Z,26.37
2017-09-22T09:41:28.440Z,25.93
2017-09-22T09:43:55.899Z,27.70
2017-09-22T09:46:23.394Z,27.27
2017-09-22T09:48:50.869Z,26.57
2017-09-22T09:51:19.162Z,27.10
2017-09-22T09:53:47.438Z,25.73
2017-09-22T09:56:15.742Z,25.17
2017-09-22T09:58:43.222Z,25.10
2017-09-22T10:01:10.994Z,25.10
2017-09-22T10:03:38.557Z,25.77
2017-09-22T10:06:06.132Z,26.23
2017-09-22T10:08:33.621Z,22.17
2017-09-22T10:11:01.877Z,25.80
2017-09-22T10:13:29.342Z,24.33
2017-09-22T10:15:56.806Z,22.70
2017-09-22T10:18:24.323Z,20.23
2017-09-22T10:20:51.785Z,20.37
2017-09-22T10:23:19.250Z,20.07
2017-09-22T10:25:46.744Z,21.10
2017-09-22T10:28:14.967Z,24.57
2017-09-22T10:30:42.441Z,18.67
2017-09-22T10:33:09.962Z,22.10
2017-09-22T10:35:37.603Z,22.13
2017-09-22T10:38:05.076Z,21.83
2017-09-22T10:40:32.564Z,21.80
2017-09-22T10:43:00.057Z,20.50
2017-09-22T10:45:27.531Z,17.90
2017-09-22T10:47:55.012Z,18.90
2017-09-22T10:50:22.576Z,18.23
2017-09-22T10:52:50.186Z,17.90
2017-09-22T10:55:17.731Z,14.50
2017-09-22T10:57:45.264Z,16.63
2017-09-22T11:00:12.754Z,16.03
2017-09-22T11:02:40.212Z,17.17
2017-09-22T11:05:07.714Z,18.77
2017-09-22T11:07:35.970Z,15.30
2017-09-22T11:10:03.426Z,9.43
2017-09-22T11:12:30.905Z,10.80
2017-09-22T11:14:59.129Z,10.00
2017-09-22T11:17:26.614Z,11.50
2017-09-22T11:19:54.959Z,10.30
2017-09-22T11:22:22.530Z,10.53
2017-09-22T11:24:49.993Z,10.13
2017-09-22T11:27:18.495Z,11.27
2017-09-22T11:29:46.014Z,11.17
2017-09-22T11:32:13.481Z,10.10
2017-09-22T11:34:41.046Z,11.00
2017-09-22T11:37:08.510Z,11.20
2017-09-22T11:39:35.978Z,10.30
2017-09-22T11:42:03.478Z,11.30
2017-09-22T11:44:30.937Z,10.87
2017-09-22T11:46:59.207Z,11.20
2017-09-22T11:49:27.481Z,11.17
2017-09-22T11:51:54.976Z,10.63
2017-09-22T11:54:22.682Z,11.23
2017-09-22T11:56:50.162Z,10.40
2017-09-22T11:59:18.387Z,11.43
2017-09-22T12:01:45.880Z,11.00
2017-09-22T12:04:13.354Z,12.10
2017-09-22T12:06:41.614Z,11.37
2017-09-22T12:09:10.771Z,10.80
2017-09-22T12:11:38.296Z,10.70
2017-09-22T12:14:05.849Z,10.43
2017-09-22T12:16:33.300Z,10.90
2017-09-22T12:19:00.860Z,9.00
2017-09-22T12:21:29.194Z,9.00
2017-09-22T12:23:56.658Z,8.07
2017-09-22T12:26:24.186Z,7.90
2017-09-22T12:28:51.664Z,8.73
2017-09-22T12:31:19.117Z,10.00
2017-09-22T12:33:46.672Z,9.83
2017-09-22T12:36:14.157Z,10.27
2017-09-22T12:38:41.614Z,9.57
2017-09-22T12:41:09.078Z,9.63
2017-09-22T12:43:36.562Z,10.17
2017-09-22T12:46:04.021Z,10.43
2017-09-22T12:48:31.521Z,11.50
2017-09-22T12:50:59.034Z,11.00
2017-09-22T12:53:26.531Z,10.63
2017-09-22T12:55:54.001Z,10.77
2017-09-22T12:58:21.498Z,10.83
2017-09-22T13:00:48.962Z,11.80
2017-09-22T13:03:16.448Z,11.43
2017-09-22T13:05:43.905Z,11.97
2017-09-22T13:08:11.397Z,10.70
2017-09-22T13:10:38.922Z,11.87
2017-09-22T13:13:07.152Z,13.37
2017-09-22T13:15:35.405Z,13.00
2017-09-22T13:18:02.869Z,13.70
2017-09-22T13:20:30.325Z,11.53
2017-09-22T13:22:57.803Z,11.50
2017-09-22T13:25:25.287Z,11.90
2017-09-22T13:27:52.778Z,11.43
2017-09-22T13:30:20.254Z,12.37
2017-09-22T13:32:47.735Z,13.83
2017-09-22T13:35:15.213Z,13.27
2017-09-22T13:37:42.711Z,13.60
2017-09-22T13:40:10.272Z,14.00
2017-09-22T13:42:37.779Z,12.57
2017-09-22T13:45:05.246Z,12.50
2017-09-22T13:47:33.017Z,11.80
2017-09-22T13:50:01.669Z,12.50
2017-09-22T13:52:29.178Z,12.70
2017-09-22T13:54:58.165Z,13.87
2017-09-22T13:57:25.967Z,13.80
2017-09-22T13:59:53.477Z,14.03
2017-09-22T14:02:21.109Z,12.83
2017-09-22T14:04:48.562Z,15.37
2017-09-22T14:07:16.057Z,14.03
2017-09-22T14:09:43.773Z,15.07
2017-09-22T14:12:11.241Z,13.60
2017-09-22T14:14:38.704Z,16.23
2017-09-22T14:17:07.077Z,14.20
2017-09-22T14:19:34.537Z,16.03
2017-09-22T14:22:02.017Z,15.20
2017-09-22T14:24:29.466Z,15.80
2017-09-22T14:26:57.304Z,16.50
2017-09-22T14:29:25.495Z,14.57
2017-09-22T14:31:53.084Z,16.00
2017-09-22T14:34:20.542Z,17.40
2017-09-22T14:36:48.018Z,14.50
2017-09-22T14:39:15.478Z,17.13
2017-09-22T14:41:43.848Z,16.60
2017-09-22T14:44:11.397Z,16.50
2017-09-22T14:46:38.886Z,16.03
2017-09-22T14:49:06.503Z,15.97
2017-09-22T14:51:33.997Z,16.63
2017-09-22T14:54:01.621Z,17.23
2017-09-22T14:56:29.082Z,18.17
2017-09-22T14:58:56.717Z,18.13
2017-09-22T15:01:24.172Z,17.27
2017-09-22T15:03:51.836Z,16.20
2017-09-22T15:06:19.523Z,17.37
2017-09-22T15:08:47.154Z,19.00
2017-09-22T15:11:14.706Z,17.17
2017-09-22T15:13:42.250Z,19.33
2017-09-22T15:16:10.625Z,18.50
2017-09-22T15:18:38.454Z,17.13
2017-09-22T15:21:05.918Z,18.53
2017-09-22T15:23:33.485Z,19.30
2017-09-22T15:26:01.178Z,19.10
2017-09-22T15:28:29.599Z,18.17
2017-09-22T15:30:57.265Z,20.80
2017-09-22T15:33:24.933Z,21.07
2017-09-22T15:35:52.415Z,18.60
2017-09-22T15:38:20.065Z,22.80
2017-09-22T15:40:47.551Z,20.83
2017-09-22T15:43:15.032Z,26.77
2017-09-22T15:45:42.516Z,22.53
2017-09-22T15:48:10.020Z,21.10
2017-09-22T15:50:37.505Z,23.00
2017-09-22T15:53:04.966Z,22.03
2017-09-22T15:55:32.456Z,28.10
2017-09-22T15:58:00.101Z,22.17
2017-09-22T16:00:27.639Z,19.77
2017-09-22T16:02:55.904Z,21.57
2017-09-22T16:05:23.398Z,19.47
2017-09-22T16:07:51.209Z,21.07
2017-09-22T16:10:18.717Z,28.07
2017-09-22T16:12:46.360Z,26.23
2017-09-22T16:15:15.422Z,27.75
2017-09-22T16:17:42.923Z,21.80
2017-09-22T16:20:13.629Z,23.40
2017-09-22T16:22:41.100Z,25.10
2017-09-22T16:25:08.569Z,28.50
2017-09-22T16:27:36.851Z,29.67
2017-09-22T16:30:05.537Z,26.87
2017-09-22T16:32:32.993Z,26.30
2017-09-22T16:35:00.548Z,28.07
2017-09-22T16:37:28.812Z,25.40
2017-09-22T16:39:57.176Z,26.17
2017-09-22T16:42:24.676Z,26.77
2017-09-22T16:44:52.143Z,26.03
2017-09-22T16:47:19.627Z,28.07
2017-09-22T16:49:47.126Z,27.50
2017-09-22T16:52:16.063Z,27.50
2017-09-22T16:54:43.530Z,24.97
2017-09-22T16:57:11.021Z,25.53
2017-09-22T16:59:38.495Z,25.83
2017-09-22T17:02:06.770Z,29.30
2017-09-22T17:04:34.226Z,25.27
2017-09-22T17:07:01.709Z,27.83
2017-09-22T17:09:29.993Z,26.17
2017-09-22T17:11:57.459Z,31.87
2017-09-22T17:14:24.959Z,32.40
2017-09-22T17:16:52.406Z,29.17
2017-09-22T17:19:19.877Z,29.73
2017-09-22T17:21:47.354Z,25.47
2017-09-22T17:24:14.842Z,26.57
2017-09-22T17:26:42.308Z,23.03
2017-09-22T17:29:09.933Z,18.90
2017-09-22T17:31:37.738Z,19.90
2017-09-22T17:34:05.255Z,18.63
2017-09-22T17:36:32.752Z,17.67
2017-09-22T17:39:00.217Z,13.77
2017-09-22T17:41:27.686Z,15.20
2017-09-22T17:43:55.255Z,14.90
2017-09-22T17:46:22.722Z,13.70
2017-09-22T17:48:50.187Z,12.60
2017-09-22T17:51:17.681Z,12.97
2017-09-22T17:53:46.830Z,12.90
2017-09-22T17:56:14.300Z,12.40
2017-09-22T17:58:41.791Z,13.37
2017-09-22T18:01:09.301Z,12.17
2017-09-22T18:03:36.798Z,14.13
2017-09-22T18:06:04.287Z,14.27
2017-09-22T18:08:31.778Z,14.50
2017-09-22T18:10:59.270Z,13.67
2017-09-22T18:13:26.762Z,15.80
2017-09-22T18:15:54.235Z,16.03
2017-09-22T18:18:21.745Z,18.00
2017-09-22T18:20:49.228Z,16.60
2017-09-22T18:23:17.555Z,16.17
2017-09-22T18:25:45.044Z,16.93
2017-09-22T18:28:12.533Z,17.30
2017-09-22T18:30:39.996Z,16.73
2017-09-22T18:33:07.505Z,18.00
2017-09-22T18:35:34.962Z,16.47
2017-09-22T18:38:02.462Z,16.80
2017-09-22T18:40:29.938Z,16.20
2017-09-22T18:42:57.460Z,16.20
2017-09-22T18:45:24.931Z,17.87
2017-09-22T18:47:53.169Z,18.60
2017-09-22T18:50:20.705Z,18.23
2017-09-22T18:52:48.181Z,19.10
2017-09-22T18:55:15.656Z,18.10
2017-09-22T18:57:43.694Z,17.93
2017-09-22T19:00:12.046Z,18.17
2017-09-22T19:02:39.593Z,18.83
2017-09-22T19:05:07.850Z,16.90
2017-09-22T19:07:35.334Z,19.50
2017-09-22T19:10:02.822Z,18.40
2017-09-22T19:12:30.280Z,17.90
2017-09-22T19:14:57.744Z,19.00
2017-09-22T19:17:25.270Z,19.60
2017-09-22T19:19:52.834Z,20.47
2017-09-22T19:22:20.286Z,20.30
2017-09-22T19:24:47.903Z,22.03
2017-09-22T19:27:15.385Z,22.80
2017-09-22T19:29:42.878Z,21.90
2017-09-22T19:32:10.397Z,22.80
2017-09-22T19:34:37.894Z,24.60
2017-09-22T19:37:05.725Z,23.27
2017-09-22T19:39:33.502Z,24.50
2017-09-22T19:42:01.897Z,25.47
2017-09-22T19:44:29.751Z,25.00
2017-09-22T19:46:58.006Z,24.03
2017-09-22T19:49:26.089Z,25.47
2017-09-22T19:51:53.757Z,27.13
2017-09-22T19:54:21.607Z,26.30
2017-09-22T19:56:49.210Z,27.57
2017-09-22T19:59:16.849Z,28.50
2017-09-22T20:01:44.559Z,30.63
2017-09-22T20:04:12.427Z,28.23
2017-09-22T20:06:40.462Z,32.20
2017-09-22T20:09:08.809Z,29.93
2017-09-22T20:11:36.872Z,32.57
2017-09-22T20:14:04.533Z,30.23
2017-09-22T20:16:32.037Z,31.13
2017-09-22T20:18:59.657Z,34.30
2017-09-22T20:21:27.144Z,32.80
2017-09-22T20:23:54.632Z,34.07
2017-09-22T20:26:22.096Z,34.53
2017-09-22T20:28:49.550Z,36.53
2017-09-22T20:31:17.047Z,35.10
2017-09-22T20:33:44.505Z,34.00
2017-09-22T20:36:12.051Z,33.27
2017-09-22T20:38:39.592Z,34.27
2017-09-22T20:41:07.117Z,33.07
2017-09-22T20:43:35.366Z,35.57
2017-09-22T20:46:02.861Z,33.80
2017-09-22T20:48:31.166Z,31.97
2017-09-22T20:50:58.665Z,33.57
2017-09-22T20:53:26.191Z,32.97
2017-09-22T20:55:53.689Z,35.07
2017-09-22T20:58:21.162Z,35.40
2017-09-22T21:00:49.466Z,33.30
2017-09-22T21:03:16.931Z,39.03
2017-09-22T21:05:44.421Z,35.33
2017-09-22T21:08:11.913Z,35.60
2017-09-22T21:10:39.394Z,33.67
2017-09-22T21:13:06.866Z,37.93
2017-09-22T21:15:34.352Z,36.10
2017-09-22T21:18:01.819Z,37.73
2017-09-22T21:20:29.311Z,37.40
2017-09-22T21:22:57.555Z,40.13
2017-09-22T21:25:25.062Z,39.10
2017-09-22T21:27:52.527Z,38.73
2017-09-22T21:30:20.872Z,38.00
2017-09-22T21:32:48.350Z,37.90
2017-09-22T21:35:16.602Z,40.87
2017-09-22T21:37:44.094Z,39.13
2017-09-22T21:40:11.640Z,41.20
2017-09-22T21:42:39.895Z,40.60
2017-09-22T21:45:07.365Z,39.80
2017-09-22T21:47:34.850Z,41.57
2017-09-22T21:50:02.368Z,42.00
2017-09-22T21:52:29.838Z,40.70
2017-09-22T21:54:57.297Z,40.40
2017-09-22T21:57:24.789Z,42.97
2017-09-22T21:59:52.254Z,45.00
2017-09-22T22:02:20.512Z,46.90
2017-09-22T22:04:53.720Z,46.37
2017-09-22T22:07:26.923Z,46.13
2017-09-22T22:09:54.471Z,43.73
2017-09-22T22:12:21.958Z,50.30
2017-09-22T22:14:49.510Z,49.87
2017-09-22T22:17:16.998Z,46.27
2017-09-22T22:19:44.498Z,42.80
2017-09-22T22:22:11.954Z,40.90
2017-09-22T22:24:39.422Z,41.00
2017-09-22T22:27:06.921Z,41.77
2017-09-22T22:29:34.394Z,38.00
2017-09-22T22:32:01.861Z,37.23
2017-09-22T22:34:29.341Z,36.60
2017-09-22T22:37:05.530Z,36.10
2017-09-22T22:39:33.000Z,36.63
2017-09-22T22:42:00.458Z,35.97
2017-09-22T22:44:28.030Z,35.30
2017-09-22T22:46:55.525Z,34.27
2017-09-22T22:49:23.749Z,33.50
2017-09-22T22:51:52.246Z,32.73
2017-09-22T22:54:19.737Z,32.10
2017-09-22T22:56:47.198Z,33.40
2017-09-22T22:59:15.467Z,32.93
2017-09-22T23:01:42.929Z,33.37
2017-09-22T23:04:10.385Z,32.33
2017-09-22T23:06:37.888Z,33.10
2017-09-22T23:09:05.346Z,31.57
2017-09-22T23:11:32.813Z,34.87
2017-09-22T23:14:00.306Z,31.80
2017-09-22T23:16:27.790Z,35.07
2017-09-22T23:18:55.325Z,36.60
2017-09-22T23:21:22.826Z,34.57
2017-09-22T23:23:50.332Z,33.70
2017-09-22T23:26:17.820Z,34.97
2017-09-22T23:28:45.308Z,34.57
2017-09-22T23:31:12.786Z,37.00
2017-09-22T23:33:40.274Z,37.00
2017-09-22T23:36:07.765Z,40.80
2017-09-22T23:38:36.116Z,35.10
2017-09-22T23:41:03.581Z,38.17
2017-09-22T23:43:31.084Z,33.30
2017-09-22T23:45:58.542Z,36.70
2017-09-22T23:48:26.018Z,35.63
2017-09-22T23:50:53.531Z,33.03
2017-09-22T23:53:21.766Z,33.37
2017-09-22T23:55:49.258Z,31.10
2017-09-22T23:58:16.765Z,32.20
